sensor_id;sensor_type;location;lat;lon;timestamp;pressure;altitude;pressure_sealevel;temperature;humidity
47742;BME280;33504;52.066;6.096;2023-02-10T00:02:02;103422.13;;;5.47;48.21
47742;BME280;33504;52.066;6.096;2023-02-10T00:04:30;103424.30;;;5.08;48.44
47742;BME280;33504;52.066;6.096;2023-02-10T00:06:57;103424.09;;;5.02;48.53
47742;BME280;33504;52.066;6.096;2023-02-10T00:09:24;103429.17;;;4.93;48.95
47742;BME280;33504;52.066;6.096;2023-02-10T00:11:51;103434.53;;;4.96;48.81
47742;BME280;33504;52.066;6.096;2023-02-10T00:14:19;103438.95;;;5.02;49.09
47742;BME280;33504;52.066;6.096;2023-02-10T00:16:49;103442.12;;;4.76;49.15
47742;BME280;33504;52.066;6.096;2023-02-10T00:19:16;103441.92;;;4.79;49.11
47742;BME280;33504;52.066;6.096;2023-02-10T00:21:44;103443.69;;;4.85;48.88
47742;BME280;33504;52.066;6.096;2023-02-10T00:24:11;103442.43;;;4.84;48.90
47742;BME280;33504;52.066;6.096;2023-02-10T00:26:38;103443.15;;;4.78;48.97
47742;BME280;33504;52.066;6.096;2023-02-10T00:29:06;103443.12;;;4.74;48.96
47742;BME280;33504;52.066;6.096;2023-02-10T00:31:33;103445.13;;;4.93;48.93
47742;BME280;33504;52.066;6.096;2023-02-10T00:34:00;103449.40;;;5.02;48.61
47742;BME280;33504;52.066;6.096;2023-02-10T00:36:28;103450.92;;;5.04;48.43
47742;BME280;33504;52.066;6.096;2023-02-10T00:39:00;103449.66;;;4.81;48.26
47742;BME280;33504;52.066;6.096;2023-02-10T00:41:26;103445.23;;;4.78;48.33
47742;BME280;33504;52.066;6.096;2023-02-10T00:43:53;103441.51;;;4.62;48.57
47742;BME280;33504;52.066;6.096;2023-02-10T00:46:22;103443.43;;;4.84;48.73
47742;BME280;33504;52.066;6.096;2023-02-10T00:48:49;103447.71;;;5.06;48.90
47742;BME280;33504;52.066;6.096;2023-02-10T00:51:17;103448.86;;;4.64;48.55
47742;BME280;33504;52.066;6.096;2023-02-10T00:53:45;103450.41;;;4.92;48.39
47742;BME280;33504;52.066;6.096;2023-02-10T00:56:12;103456.96;;;4.55;48.70
47742;BME280;33504;52.066;6.096;2023-02-10T00:58:39;103460.03;;;4.47;49.02
47742;BME280;33504;52.066;6.096;2023-02-10T01:01:07;103455.60;;;4.77;49.65
47742;BME280;33504;52.066;6.096;2023-02-10T01:03:34;103459.44;;;4.30;49.49
47742;BME280;33504;52.066;6.096;2023-02-10T01:06:02;103463.90;;;4.67;49.18
47742;BME280;33504;52.066;6.096;2023-02-10T01:08:29;103467.70;;;5.07;48.82
47742;BME280;33504;52.066;6.096;2023-02-10T01:11:00;103471.76;;;4.66;49.11
47742;BME280;33504;52.066;6.096;2023-02-10T01:13:28;103474.03;;;4.80;48.96
47742;BME280;33504;52.066;6.096;2023-02-10T01:15:56;103476.07;;;4.79;49.04
47742;BME280;33504;52.066;6.096;2023-02-10T01:18:23;103475.80;;;4.64;48.72
47742;BME280;33504;52.066;6.096;2023-02-10T01:20:50;103473.15;;;4.95;48.44
47742;BME280;33504;52.066;6.096;2023-02-10T01:23:17;103474.06;;;4.69;48.51
47742;BME280;33504;52.066;6.096;2023-02-10T01:25:45;103473.71;;;4.86;48.70
47742;BME280;33504;52.066;6.096;2023-02-10T01:28:12;103476.62;;;4.56;49.32
47742;BME280;33504;52.066;6.096;2023-02-10T01:30:39;103475.00;;;4.51;49.41
47742;BME280;33504;52.066;6.096;2023-02-10T01:33:06;103473.83;;;4.55;48.84
47742;BME280;33504;52.066;6.096;2023-02-10T01:35:37;103469.98;;;4.96;48.94
47742;BME280;33504;52.066;6.096;2023-02-10T01:38:04;103465.38;;;4.86;48.93
47742;BME280;33504;52.066;6.096;2023-02-10T01:40:31;103463.47;;;4.73;48.78
47742;BME280;33504;52.066;6.096;2023-02-10T01:42:58;103461.22;;;4.99;48.65
47742;BME280;33504;52.066;6.096;2023-02-10T01:45:28;103459.19;;;4.49;48.87
47742;BME280;33504;52.066;6.096;2023-02-10T01:47:59;103456.31;;;4.43;49.35
47742;BME280;33504;52.066;6.096;2023-02-10T01:50:30;103457.86;;;4.43;48.82
47742;BME280;33504;52.066;6.096;2023-02-10T01:52:58;103458.07;;;4.60;48.95
47742;BME280;33504;52.066;6.096;2023-02-10T01:55:29;103465.84;;;4.72;48.67
47742;BME280;33504;52.066;6.096;2023-02-10T01:57:58;103467.87;;;4.80;48.46
47742;BME280;33504;52.066;6.096;2023-02-10T02:00:25;103474.34;;;4.67;48.14
47742;BME280;33504;52.066;6.096;2023-02-10T02:02:53;103471.46;;;4.92;47.93
47742;BME280;33504;52.066;6.096;2023-02-10T02:05:29;103470.06;;;4.89;48.09
47742;BME280;33504;52.066;6.096;2023-02-10T02:07:59;103471.88;;;4.74;47.49
47742;BME280;33504;52.066;6.096;2023-02-10T02:10:44;103474.84;;;4.89;47.28
47742;BME280;33504;52.066;6.096;2023-02-10T02:13:20;103478.33;;;4.85;46.28
47742;BME280;33504;52.066;6.096;2023-02-10T02:15:58;103483.00;;;4.70;45.60
47742;BME280;33504;52.066;6.096;2023-02-10T02:18:34;103478.76;;;4.25;45.10
47742;BME280;33504;52.066;6.096;2023-02-10T02:22:06;103480.00;;;5.13;44.93
47742;BME280;33504;52.066;6.096;2023-02-10T02:24:57;103481.41;;;4.16;45.25
47742;BME280;33504;52.066;6.096;2023-02-10T02:27:42;103485.39;;;3.98;45.53
47742;BME280;33504;52.066;6.096;2023-02-10T02:30:35;103484.41;;;3.85;45.74
47742;BME280;33504;52.066;6.096;2023-02-10T02:33:10;103477.31;;;3.77;45.72
47742;BME280;33504;52.066;6.096;2023-02-10T02:35:44;103476.07;;;3.73;45.88
47742;BME280;33504;52.066;6.096;2023-02-10T02:38:12;103475.42;;;3.71;45.72
47742;BME280;33504;52.066;6.096;2023-02-10T02:40:39;103472.21;;;3.63;46.00
47742;BME280;33504;52.066;6.096;2023-02-10T02:43:07;103473.24;;;3.68;46.04
47742;BME280;33504;52.066;6.096;2023-02-10T02:45:40;103475.93;;;3.54;46.48
47742;BME280;33504;52.066;6.096;2023-02-10T02:48:22;103479.10;;;3.78;46.44
47742;BME280;33504;52.066;6.096;2023-02-10T02:50:59;103479.83;;;4.01;46.03
47742;BME280;33504;52.066;6.096;2023-02-10T02:53:35;103484.36;;;3.68;45.98
47742;BME280;33504;52.066;6.096;2023-02-10T02:56:11;103482.86;;;3.58;45.80
47742;BME280;33504;52.066;6.096;2023-02-10T02:58:47;103487.44;;;3.27;45.88
47742;BME280;33504;52.066;6.096;2023-02-10T03:01:21;103492.77;;;3.47;45.80
47742;BME280;33504;52.066;6.096;2023-02-10T03:03:51;103495.86;;;3.40;45.69
47742;BME280;33504;52.066;6.096;2023-02-10T03:06:19;103498.58;;;3.10;45.79
47742;BME280;33504;52.066;6.096;2023-02-10T03:08:46;103496.34;;;3.06;45.81
47742;BME280;33504;52.066;6.096;2023-02-10T03:11:13;103491.08;;;3.26;45.82
47742;BME280;33504;52.066;6.096;2023-02-10T03:13:41;103493.83;;;3.50;45.89
47742;BME280;33504;52.066;6.096;2023-02-10T03:16:08;103492.52;;;3.22;46.08
47742;BME280;33504;52.066;6.096;2023-02-10T03:18:36;103493.39;;;3.23;45.99
47742;BME280;33504;52.066;6.096;2023-02-10T03:21:03;103491.55;;;3.15;45.79
47742;BME280;33504;52.066;6.096;2023-02-10T03:23:30;103491.61;;;3.39;45.85
47742;BME280;33504;52.066;6.096;2023-02-10T03:25:57;103495.73;;;3.37;45.82
47742;BME280;33504;52.066;6.096;2023-02-10T03:28:24;103501.01;;;2.84;45.84
47742;BME280;33504;52.066;6.096;2023-02-10T03:30:52;103506.11;;;3.04;45.88
47742;BME280;33504;52.066;6.096;2023-02-10T03:33:19;103503.49;;;3.25;45.82
47742;BME280;33504;52.066;6.096;2023-02-10T03:35:47;103503.77;;;3.21;45.75
47742;BME280;33504;52.066;6.096;2023-02-10T03:38:14;103499.12;;;2.66;45.75
47742;BME280;33504;52.066;6.096;2023-02-10T03:40:42;103498.60;;;2.77;46.03
47742;BME280;33504;52.066;6.096;2023-02-10T03:43:09;103497.66;;;3.06;46.43
47742;BME280;33504;52.066;6.096;2023-02-10T03:45:38;103498.69;;;3.14;46.37
47742;BME280;33504;52.066;6.096;2023-02-10T03:48:06;103496.10;;;3.21;46.61
47742;BME280;33504;52.066;6.096;2023-02-10T03:50:33;103500.05;;;3.19;47.34
47742;BME280;33504;52.066;6.096;2023-02-10T03:53:01;103499.64;;;3.29;47.46
47742;BME280;33504;52.066;6.096;2023-02-10T03:55:28;103500.51;;;3.33;47.63
47742;BME280;33504;52.066;6.096;2023-02-10T03:57:55;103504.43;;;3.19;47.51
47742;BME280;33504;52.066;6.096;2023-02-10T04:00:23;103499.81;;;3.23;47.86
47742;BME280;33504;52.066;6.096;2023-02-10T04:02:50;103497.66;;;3.26;48.32
47742;BME280;33504;52.066;6.096;2023-02-10T04:05:17;103493.44;;;3.53;48.36
47742;BME280;33504;52.066;6.096;2023-02-10T04:07:44;103490.72;;;3.62;48.58
47742;BME280;33504;52.066;6.096;2023-02-10T04:10:11;103491.28;;;3.60;48.73
47742;BME280;33504;52.066;6.096;2023-02-10T04:12:39;103493.67;;;3.48;49.55
47742;BME280;33504;52.066;6.096;2023-02-10T04:15:07;103494.73;;;3.16;50.16
47742;BME280;33504;52.066;6.096;2023-02-10T04:17:34;103497.23;;;3.41;49.82
47742;BME280;33504;52.066;6.096;2023-02-10T04:20:01;103497.02;;;3.48;50.31
47742;BME280;33504;52.066;6.096;2023-02-10T04:22:28;103494.65;;;3.71;49.93
47742;BME280;33504;52.066;6.096;2023-02-10T04:24:55;103496.26;;;3.35;49.92
47742;BME280;33504;52.066;6.096;2023-02-10T04:27:23;103496.62;;;3.23;49.76
47742;BME280;33504;52.066;6.096;2023-02-10T04:29:50;103497.97;;;3.13;50.31
47742;BME280;33504;52.066;6.096;2023-02-10T04:32:17;103499.65;;;3.35;49.64
47742;BME280;33504;52.066;6.096;2023-02-10T04:34:44;103509.31;;;3.39;50.28
47742;BME280;33504;52.066;6.096;2023-02-10T04:37:11;103507.86;;;3.45;50.30
47742;BME280;33504;52.066;6.096;2023-02-10T04:39:39;103509.80;;;3.41;50.30
47742;BME280;33504;52.066;6.096;2023-02-10T04:42:06;103511.53;;;3.49;50.02
47742;BME280;33504;52.066;6.096;2023-02-10T04:44:33;103508.98;;;3.34;49.69
47742;BME280;33504;52.066;6.096;2023-02-10T04:47:00;103517.68;;;3.23;50.14
47742;BME280;33504;52.066;6.096;2023-02-10T04:49:27;103518.77;;;3.49;49.84
47742;BME280;33504;52.066;6.096;2023-02-10T04:51:55;103522.74;;;3.68;50.12
47742;BME280;33504;52.066;6.096;2023-02-10T04:54:22;103526.03;;;3.38;49.77
47742;BME280;33504;52.066;6.096;2023-02-10T04:56:49;103523.88;;;3.73;50.07
47742;BME280;33504;52.066;6.096;2023-02-10T04:59:17;103525.39;;;3.55;49.86
47742;BME280;33504;52.066;6.096;2023-02-10T05:01:44;103526.07;;;3.76;50.01
47742;BME280;33504;52.066;6.096;2023-02-10T05:04:11;103526.53;;;3.87;49.78
47742;BME280;33504;52.066;6.096;2023-02-10T05:06:38;103529.60;;;3.67;50.34
47742;BME280;33504;52.066;6.096;2023-02-10T05:09:06;103532.40;;;3.87;49.73
47742;BME280;33504;52.066;6.096;2023-02-10T05:11:33;103526.25;;;3.60;49.86
47742;BME280;33504;52.066;6.096;2023-02-10T05:14:00;103525.10;;;3.60;49.77
47742;BME280;33504;52.066;6.096;2023-02-10T05:16:28;103522.60;;;3.69;49.50
47742;BME280;33504;52.066;6.096;2023-02-10T05:18:56;103524.11;;;3.88;49.69
47742;BME280;33504;52.066;6.096;2023-02-10T05:21:22;103526.28;;;3.78;50.14
47742;BME280;33504;52.066;6.096;2023-02-10T05:23:49;103525.67;;;3.80;50.33
47742;BME280;33504;52.066;6.096;2023-02-10T05:26:16;103520.40;;;3.31;50.36
47742;BME280;33504;52.066;6.096;2023-02-10T05:28:44;103518.39;;;3.44;49.99
47742;BME280;33504;52.066;6.096;2023-02-10T05:31:10;103519.28;;;3.21;50.64
47742;BME280;33504;52.066;6.096;2023-02-10T05:33:37;103519.65;;;3.27;50.50
47742;BME280;33504;52.066;6.096;2023-02-10T05:36:06;103523.65;;;3.44;49.90
47742;BME280;33504;52.066;6.096;2023-02-10T05:38:33;103522.08;;;3.39;49.97
47742;BME280;33504;52.066;6.096;2023-02-10T05:41:00;103522.63;;;3.38;49.99
47742;BME280;33504;52.066;6.096;2023-02-10T05:43:28;103519.42;;;3.68;49.90
47742;BME280;33504;52.066;6.096;2023-02-10T05:45:55;103515.69;;;3.47;49.76
47742;BME280;33504;52.066;6.096;2023-02-10T05:48:22;103520.21;;;3.72;50.23
47742;BME280;33504;52.066;6.096;2023-02-10T05:50:50;103524.63;;;3.78;50.15
47742;BME280;33504;52.066;6.096;2023-02-10T05:53:17;103530.69;;;3.50;50.76
47742;BME280;33504;52.066;6.096;2023-02-10T05:55:45;103530.80;;;3.21;50.35
47742;BME280;33504;52.066;6.096;2023-02-10T05:58:13;103531.86;;;3.56;49.95
47742;BME280;33504;52.066;6.096;2023-02-10T06:00:40;103529.54;;;3.01;50.85
47742;BME280;33504;52.066;6.096;2023-02-10T06:03:08;103530.78;;;3.28;50.15
47742;BME280;33504;52.066;6.096;2023-02-10T06:05:35;103528.34;;;3.37;49.88
47742;BME280;33504;52.066;6.096;2023-02-10T06:08:02;103528.85;;;3.61;50.47
47742;BME280;33504;52.066;6.096;2023-02-10T06:10:29;103528.78;;;3.59;50.04
47742;BME280;33504;52.066;6.096;2023-02-10T06:12:56;103531.67;;;3.72;50.32
47742;BME280;33504;52.066;6.096;2023-02-10T06:15:23;103528.83;;;3.22;50.74
47742;BME280;33504;52.066;6.096;2023-02-10T06:17:51;103522.93;;;3.58;50.45
47742;BME280;33504;52.066;6.096;2023-02-10T06:20:18;103520.67;;;3.42;50.79
47742;BME280;33504;52.066;6.096;2023-02-10T06:22:44;103521.73;;;3.03;51.80
47742;BME280;33504;52.066;6.096;2023-02-10T06:25:12;103521.36;;;3.29;51.38
47742;BME280;33504;52.066;6.096;2023-02-10T06:27:39;103518.25;;;3.20;50.99
47742;BME280;33504;52.066;6.096;2023-02-10T06:30:08;103520.58;;;3.36;51.48
47742;BME280;33504;52.066;6.096;2023-02-10T06:32:35;103521.42;;;3.48;51.13
47742;BME280;33504;52.066;6.096;2023-02-10T06:35:01;103524.34;;;2.89;51.77
47742;BME280;33504;52.066;6.096;2023-02-10T06:37:29;103522.78;;;3.31;51.52
47742;BME280;33504;52.066;6.096;2023-02-10T06:39:55;103523.90;;;3.18;51.69
47742;BME280;33504;52.066;6.096;2023-02-10T06:42:23;103527.07;;;3.24;51.57
47742;BME280;33504;52.066;6.096;2023-02-10T06:44:50;103532.54;;;3.32;51.49
47742;BME280;33504;52.066;6.096;2023-02-10T06:47:17;103537.00;;;3.48;51.10
47742;BME280;33504;52.066;6.096;2023-02-10T06:49:44;103538.57;;;3.58;50.96
47742;BME280;33504;52.066;6.096;2023-02-10T06:52:11;103539.10;;;2.91;51.47
47742;BME280;33504;52.066;6.096;2023-02-10T06:54:39;103541.83;;;2.91;51.97
47742;BME280;33504;52.066;6.096;2023-02-10T06:57:05;103538.93;;;3.41;51.64
47742;BME280;33504;52.066;6.096;2023-02-10T06:59:33;103539.94;;;3.32;51.80
47742;BME280;33504;52.066;6.096;2023-02-10T07:02:01;103542.57;;;2.49;52.58
47742;BME280;33504;52.066;6.096;2023-02-10T07:04:28;103543.29;;;3.29;51.90
47742;BME280;33504;52.066;6.096;2023-02-10T07:06:56;103545.57;;;2.82;52.31
47742;BME280;33504;52.066;6.096;2023-02-10T07:09:24;103544.60;;;3.32;51.83
47742;BME280;33504;52.066;6.096;2023-02-10T07:11:51;103551.26;;;3.49;51.50
47742;BME280;33504;52.066;6.096;2023-02-10T07:14:18;103555.42;;;3.54;51.36
47742;BME280;33504;52.066;6.096;2023-02-10T07:16:46;103558.36;;;3.11;51.22
47742;BME280;33504;52.066;6.096;2023-02-10T07:19:13;103562.62;;;3.68;51.17
47742;BME280;33504;52.066;6.096;2023-02-10T07:21:40;103559.39;;;3.19;51.21
47742;BME280;33504;52.066;6.096;2023-02-10T07:24:08;103560.20;;;3.43;50.78
47742;BME280;33504;52.066;6.096;2023-02-10T07:26:35;103559.18;;;3.56;50.58
47742;BME280;33504;52.066;6.096;2023-02-10T07:29:03;103554.94;;;3.60;50.42
47742;BME280;33504;52.066;6.096;2023-02-10T07:31:30;103552.12;;;3.64;50.34
47742;BME280;33504;52.066;6.096;2023-02-10T07:33:56;103552.27;;;3.56;50.78
47742;BME280;33504;52.066;6.096;2023-02-10T07:36:25;103553.02;;;3.42;50.76
47742;BME280;33504;52.066;6.096;2023-02-10T07:38:51;103552.65;;;3.37;50.69
47742;BME280;33504;52.066;6.096;2023-02-10T07:41:19;103559.25;;;3.50;50.67
47742;BME280;33504;52.066;6.096;2023-02-10T07:43:46;103556.14;;;3.93;50.69
47742;BME280;33504;52.066;6.096;2023-02-10T07:46:13;103563.86;;;3.65;50.36
47742;BME280;33504;52.066;6.096;2023-02-10T07:48:40;103566.65;;;3.70;50.33
47742;BME280;33504;52.066;6.096;2023-02-10T07:51:07;103577.59;;;3.64;50.40
47742;BME280;33504;52.066;6.096;2023-02-10T07:53:34;103579.05;;;3.69;50.37
47742;BME280;33504;52.066;6.096;2023-02-10T07:56:02;103580.84;;;3.78;50.21
47742;BME280;33504;52.066;6.096;2023-02-10T07:58:29;103582.88;;;3.96;50.29
47742;BME280;33504;52.066;6.096;2023-02-10T08:00:57;103581.25;;;3.85;50.00
47742;BME280;33504;52.066;6.096;2023-02-10T08:03:24;103585.33;;;3.62;50.42
47742;BME280;33504;52.066;6.096;2023-02-10T08:05:52;103589.42;;;3.71;50.32
47742;BME280;33504;52.066;6.096;2023-02-10T08:08:19;103592.11;;;3.53;50.96
47742;BME280;33504;52.066;6.096;2023-02-10T08:10:47;103602.35;;;4.12;50.24
47742;BME280;33504;52.066;6.096;2023-02-10T08:13:14;103601.06;;;4.44;49.90
47742;BME280;33504;52.066;6.096;2023-02-10T08:15:41;103604.15;;;4.79;49.35
47742;BME280;33504;52.066;6.096;2023-02-10T08:18:08;103607.08;;;4.96;48.53
47742;BME280;33504;52.066;6.096;2023-02-10T08:20:35;103608.84;;;5.47;48.01
47742;BME280;33504;52.066;6.096;2023-02-10T08:23:03;103613.03;;;6.02;47.06
47742;BME280;33504;52.066;6.096;2023-02-10T08:25:30;103612.52;;;6.12;46.23
47742;BME280;33504;52.066;6.096;2023-02-10T08:27:58;103608.98;;;5.76;46.36
47742;BME280;33504;52.066;6.096;2023-02-10T08:30:26;103601.87;;;5.63;46.15
47742;BME280;33504;52.066;6.096;2023-02-10T08:32:53;103600.26;;;6.09;45.66
47742;BME280;33504;52.066;6.096;2023-02-10T08:35:20;103595.81;;;5.78;45.73
47742;BME280;33504;52.066;6.096;2023-02-10T08:37:47;103608.90;;;5.46;46.01
47742;BME280;33504;52.066;6.096;2023-02-10T08:40:14;103592.29;;;5.70;45.38
47742;BME280;33504;52.066;6.096;2023-02-10T08:42:41;103592.89;;;6.27;44.60
47742;BME280;33504;52.066;6.096;2023-02-10T08:45:09;103598.07;;;6.70;44.03
47742;BME280;33504;52.066;6.096;2023-02-10T08:47:37;103590.81;;;6.20;44.03
47742;BME280;33504;52.066;6.096;2023-02-10T08:50:05;103591.95;;;6.07;44.73
47742;BME280;33504;52.066;6.096;2023-02-10T08:52:32;103591.33;;;5.48;45.18
47742;BME280;33504;52.066;6.096;2023-02-10T08:54:59;103588.25;;;5.63;45.36
47742;BME280;33504;52.066;6.096;2023-02-10T08:57:27;103593.13;;;5.51;45.64
47742;BME280;33504;52.066;6.096;2023-02-10T08:59:54;103598.79;;;5.07;45.60
47742;BME280;33504;52.066;6.096;2023-02-10T09:02:21;103604.27;;;5.47;45.67
47742;BME280;33504;52.066;6.096;2023-02-10T09:04:49;103604.82;;;6.33;44.71
47742;BME280;33504;52.066;6.096;2023-02-10T09:07:16;103610.97;;;6.04;44.66
47742;BME280;33504;52.066;6.096;2023-02-10T09:09:44;103611.47;;;6.41;44.05
47742;BME280;33504;52.066;6.096;2023-02-10T09:12:11;103611.36;;;6.36;43.25
47742;BME280;33504;52.066;6.096;2023-02-10T09:14:39;103607.78;;;6.88;42.88
47742;BME280;33504;52.066;6.096;2023-02-10T09:17:07;103603.51;;;7.05;42.42
47742;BME280;33504;52.066;6.096;2023-02-10T09:19:34;103605.54;;;7.06;42.00
47742;BME280;33504;52.066;6.096;2023-02-10T09:22:02;103613.20;;;7.20;41.70
47742;BME280;33504;52.066;6.096;2023-02-10T09:24:30;103615.21;;;7.80;41.18
47742;BME280;33504;52.066;6.096;2023-02-10T09:26:58;103611.82;;;7.62;41.02
47742;BME280;33504;52.066;6.096;2023-02-10T09:29:25;103610.06;;;7.29;41.55
47742;BME280;33504;52.066;6.096;2023-02-10T09:31:53;103611.71;;;7.37;41.08
47742;BME280;33504;52.066;6.096;2023-02-10T09:34:20;103610.05;;;7.54;40.64
47742;BME280;33504;52.066;6.096;2023-02-10T09:36:47;103613.92;;;7.16;41.04
47742;BME280;33504;52.066;6.096;2023-02-10T09:39:14;103610.08;;;8.06;40.40
47742;BME280;33504;52.066;6.096;2023-02-10T09:41:47;103616.10;;;7.82;40.67
47742;BME280;33504;52.066;6.096;2023-02-10T09:44:20;103621.07;;;7.80;40.55
47742;BME280;33504;52.066;6.096;2023-02-10T09:47:05;103624.25;;;7.85;40.40
47742;BME280;33504;52.066;6.096;2023-02-10T09:50:05;103623.97;;;8.01;40.13
47742;BME280;33504;52.066;6.096;2023-02-10T09:52:42;103627.11;;;8.01;39.92
47742;BME280;33504;52.066;6.096;2023-02-10T09:55:15;103631.71;;;7.97;40.18
47742;BME280;33504;52.066;6.096;2023-02-10T09:57:47;103633.47;;;7.10;41.01
47742;BME280;33504;52.066;6.096;2023-02-10T10:00:25;103633.78;;;7.42;40.80
47742;BME280;33504;52.066;6.096;2023-02-10T10:02:54;103629.88;;;7.82;40.50
47742;BME280;33504;52.066;6.096;2023-02-10T10:05:35;103634.18;;;8.65;39.36
47742;BME280;33504;52.066;6.096;2023-02-10T10:08:09;103636.23;;;7.71;40.06
47742;BME280;33504;52.066;6.096;2023-02-10T10:10:44;103638.29;;;8.71;39.57
47742;BME280;33504;52.066;6.096;2023-02-10T10:13:14;103640.97;;;8.29;40.07
47742;BME280;33504;52.066;6.096;2023-02-10T10:15:54;103635.62;;;8.31;39.58
47742;BME280;33504;52.066;6.096;2023-02-10T10:18:30;103633.72;;;8.52;39.38
47742;BME280;33504;52.066;6.096;2023-02-10T10:21:05;103639.22;;;8.64;39.89
47742;BME280;33504;52.066;6.096;2023-02-10T10:23:47;103630.41;;;8.77;39.59
47742;BME280;33504;52.066;6.096;2023-02-10T10:26:35;103627.56;;;9.03;39.23
47742;BME280;33504;52.066;6.096;2023-02-10T10:29:19;103625.38;;;8.65;39.22
47742;BME280;33504;52.066;6.096;2023-02-10T10:31:50;103630.00;;;9.80;38.69
47742;BME280;33504;52.066;6.096;2023-02-10T10:34:24;103632.58;;;9.44;38.40
47742;BME280;33504;52.066;6.096;2023-02-10T10:36:55;103630.47;;;9.99;37.72
47742;BME280;33504;52.066;6.096;2023-02-10T10:39:29;103632.26;;;10.65;36.46
47742;BME280;33504;52.066;6.096;2023-02-10T10:42:01;103639.87;;;10.77;36.46
47742;BME280;33504;52.066;6.096;2023-02-10T10:44:31;103624.13;;;10.35;36.58
47742;BME280;33504;52.066;6.096;2023-02-10T10:47:04;103621.11;;;10.22;36.82
47742;BME280;33504;52.066;6.096;2023-02-10T10:49:32;103621.57;;;10.97;36.21
47742;BME280;33504;52.066;6.096;2023-02-10T10:52:00;103620.46;;;11.22;35.87
47742;BME280;33504;52.066;6.096;2023-02-10T10:54:27;103613.69;;;11.49;35.59
47742;BME280;33504;52.066;6.096;2023-02-10T10:56:58;103612.32;;;11.51;35.21
47742;BME280;33504;52.066;6.096;2023-02-10T10:59:31;103611.79;;;12.16;34.55
47742;BME280;33504;52.066;6.096;2023-02-10T11:02:11;103612.34;;;12.34;34.21
47742;BME280;33504;52.066;6.096;2023-02-10T11:04:39;103610.49;;;12.11;33.90
47742;BME280;33504;52.066;6.096;2023-02-10T11:07:09;103609.19;;;11.78;33.67
47742;BME280;33504;52.066;6.096;2023-02-10T11:09:40;103614.54;;;12.70;33.43
47742;BME280;33504;52.066;6.096;2023-02-10T11:12:21;103610.68;;;13.05;33.35
47742;BME280;33504;52.066;6.096;2023-02-10T11:14:52;103610.35;;;12.42;33.10
47742;BME280;33504;52.066;6.096;2023-02-10T11:17:24;103607.81;;;13.15;32.63
47742;BME280;33504;52.066;6.096;2023-02-10T11:19:55;103605.43;;;13.12;32.64
47742;BME280;33504;52.066;6.096;2023-02-10T11:22:23;103591.04;;;14.17;32.10
47742;BME280;33504;52.066;6.096;2023-02-10T11:24:54;103587.18;;;14.17;31.58
47742;BME280;33504;52.066;6.096;2023-02-10T11:27:22;103582.65;;;14.40;31.07
47742;BME280;33504;52.066;6.096;2023-02-10T11:29:52;103580.34;;;15.09;30.51
47742;BME280;33504;52.066;6.096;2023-02-10T11:32:21;103584.63;;;14.85;30.38
47742;BME280;33504;52.066;6.096;2023-02-10T11:34:50;103581.11;;;14.77;30.50
47742;BME280;33504;52.066;6.096;2023-02-10T11:37:22;103582.89;;;14.57;31.06
47742;BME280;33504;52.066;6.096;2023-02-10T11:39:51;103582.68;;;14.75;30.58
47742;BME280;33504;52.066;6.096;2023-02-10T11:42:22;103576.88;;;14.61;31.17
47742;BME280;33504;52.066;6.096;2023-02-10T11:44:56;103583.55;;;14.49;31.03
47742;BME280;33504;52.066;6.096;2023-02-10T11:47:25;103578.06;;;14.78;30.74
47742;BME280;33504;52.066;6.096;2023-02-10T11:49:53;103576.68;;;14.34;30.57
47742;BME280;33504;52.066;6.096;2023-02-10T11:52:22;103572.02;;;14.53;30.67
47742;BME280;33504;52.066;6.096;2023-02-10T11:54:51;103569.17;;;14.78;30.35
47742;BME280;33504;52.066;6.096;2023-02-10T11:57:28;103562.66;;;14.39;30.72
47742;BME280;33504;52.066;6.096;2023-02-10T12:00:06;103562.61;;;14.41;31.11
47742;BME280;33504;52.066;6.096;2023-02-10T12:02:53;103550.60;;;13.99;31.15
47742;BME280;33504;52.066;6.096;2023-02-10T12:05:28;103544.63;;;13.97;31.78
47742;BME280;33504;52.066;6.096;2023-02-10T12:08:10;103547.83;;;13.72;31.71
47742;BME280;33504;52.066;6.096;2023-02-10T12:10:45;103547.21;;;13.01;32.52
47742;BME280;33504;52.066;6.096;2023-02-10T12:13:25;103545.61;;;13.28;32.22
47742;BME280;33504;52.066;6.096;2023-02-10T12:16:05;103552.98;;;13.52;32.40
47742;BME280;33504;52.066;6.096;2023-02-10T12:18:47;103558.42;;;13.91;32.15
47742;BME280;33504;52.066;6.096;2023-02-10T12:21:28;103555.03;;;13.58;31.96
47742;BME280;33504;52.066;6.096;2023-02-10T12:24:10;103548.07;;;13.80;31.64
47742;BME280;33504;52.066;6.096;2023-02-10T12:26:44;103543.22;;;14.00;31.63
47742;BME280;33504;52.066;6.096;2023-02-10T12:29:23;103546.17;;;14.15;31.52
47742;BME280;33504;52.066;6.096;2023-02-10T12:32:02;103541.00;;;13.99;31.70
47742;BME280;33504;52.066;6.096;2023-02-10T12:34:46;103541.01;;;14.35;31.47
47742;BME280;33504;52.066;6.096;2023-02-10T12:37:29;103545.50;;;13.51;31.48
47742;BME280;33504;52.066;6.096;2023-02-10T12:40:12;103543.41;;;13.69;31.63
47742;BME280;33504;52.066;6.096;2023-02-10T12:42:51;103533.31;;;13.49;31.22
47742;BME280;33504;52.066;6.096;2023-02-10T12:45:30;103527.64;;;13.69;31.23
47742;BME280;33504;52.066;6.096;2023-02-10T12:48:11;103522.27;;;13.70;31.44
47742;BME280;33504;52.066;6.096;2023-02-10T12:50:59;103516.09;;;13.68;31.66
47742;BME280;33504;52.066;6.096;2023-02-10T12:53:34;103506.72;;;14.10;30.96
47742;BME280;33504;52.066;6.096;2023-02-10T12:56:07;103504.10;;;14.16;31.13
47742;BME280;33504;52.066;6.096;2023-02-10T12:58:38;103504.29;;;13.96;30.69
47742;BME280;33504;52.066;6.096;2023-02-10T13:01:12;103504.58;;;13.97;30.35
47742;BME280;33504;52.066;6.096;2023-02-10T13:03:43;103497.32;;;13.86;30.51
47742;BME280;33504;52.066;6.096;2023-02-10T13:06:20;103499.04;;;14.36;30.42
47742;BME280;33504;52.066;6.096;2023-02-10T13:08:50;103497.10;;;14.39;29.87
47742;BME280;33504;52.066;6.096;2023-02-10T13:11:25;103500.47;;;14.54;29.45
47742;BME280;33504;52.066;6.096;2023-02-10T13:13:55;103496.83;;;14.25;28.88